createdAt,value
2017-10-15T00:00:56.025Z,20.00
2017-10-15T00:01:56.739Z,18.00
2017-10-15T00:02:57.467Z,17.00
2017-10-15T00:03:58.188Z,18.00
2017-10-15T00:04:58.905Z,20.00
2017-10-15T00:05:59.617Z,19.00
2017-10-15T00:07:00.330Z,18.00
2017-10-15T00:08:01.058Z,22.00
2017-10-15T00:09:01.771Z,22.00
2017-10-15T00:10:02.500Z,21.00
2017-10-15T00:11:03.225Z,22.00
2017-10-15T00:12:03.941Z,23.00
2017-10-15T00:13:04.655Z,24.00
2017-10-15T00:14:05.374Z,20.00
2017-10-15T00:15:06.083Z,23.00
2017-10-15T00:16:06.797Z,22.00
2017-10-15T00:17:07.511Z,24.00
2017-10-15T00:18:08.224Z,23.00
2017-10-15T00:19:08.937Z,22.00
2017-10-15T00:20:09.663Z,24.00
2017-10-15T00:21:10.376Z,24.00
2017-10-15T00:22:11.091Z,21.00
2017-10-15T00:23:11.806Z,21.00
2017-10-15T00:24:12.520Z,20.00
2017-10-15T00:25:13.242Z,22.00
2017-10-15T00:26:13.949Z,21.00
2017-10-15T00:27:14.663Z,20.00
2017-10-15T00:28:15.387Z,20.00
2017-10-15T00:29:16.101Z,20.00
2017-10-15T00:30:16.816Z,19.00
2017-10-15T00:31:17.528Z,20.00
2017-10-15T00:32:18.257Z,20.00
2017-10-15T00:33:18.969Z,20.00
2017-10-15T00:34:19.695Z,21.00
2017-10-15T00:35:20.424Z,19.00
2017-10-15T00:36:21.138Z,19.00
2017-10-15T00:37:21.857Z,19.00
2017-10-15T00:38:22.570Z,20.00
2017-10-15T00:39:23.279Z,18.00
2017-10-15T00:40:23.990Z,18.00
2017-10-15T00:41:24.703Z,19.00
2017-10-15T00:42:25.416Z,17.00
2017-10-15T00:43:26.142Z,17.00
2017-10-15T00:44:26.857Z,20.00
2017-10-15T00:45:27.571Z,17.00
2017-10-15T00:46:28.286Z,15.00
2017-10-15T00:47:29.020Z,15.00
2017-10-15T00:48:29.714Z,14.00
2017-10-15T00:49:30.428Z,17.00
2017-10-15T00:50:31.142Z,18.00
2017-10-15T00:51:31.867Z,15.00
2017-10-15T00:52:32.579Z,19.00
2017-10-15T00:53:33.290Z,18.00
2017-10-15T00:54:34.002Z,17.00
2017-10-15T00:55:34.716Z,18.00
2017-10-15T00:56:35.430Z,16.00
2017-10-15T00:57:36.159Z,16.00
2017-10-15T00:58:36.870Z,16.00
2017-10-15T00:59:37.583Z,17.00
2017-10-15T01:00:38.296Z,16.00
2017-10-15T01:01:39.010Z,17.00
2017-10-15T01:02:39.747Z,15.00
2017-10-15T01:03:40.440Z,16.00
2017-10-15T01:04:41.168Z,18.00
2017-10-15T01:05:41.883Z,18.00
2017-10-15T01:06:42.614Z,17.00
2017-10-15T01:07:43.308Z,14.00
2017-10-15T01:08:44.021Z,15.00
2017-10-15T01:09:44.734Z,18.00
2017-10-15T01:10:45.448Z,15.00
2017-10-15T01:11:46.162Z,15.00
2017-10-15T01:12:46.876Z,18.00
2017-10-15T01:13:47.604Z,17.00
2017-10-15T01:14:48.319Z,19.00
2017-10-15T01:15:49.031Z,16.00
2017-10-15T01:16:49.746Z,16.00
2017-10-15T01:17:50.457Z,17.00
2017-10-15T01:18:51.170Z,16.00
2017-10-15T01:19:51.882Z,19.00
2017-10-15T01:20:52.596Z,18.00
2017-10-15T01:21:53.309Z,19.00
2017-10-15T01:22:54.023Z,20.00
2017-10-15T01:23:54.747Z,17.00
2017-10-15T01:24:55.461Z,16.00
2017-10-15T01:25:56.188Z,20.00
2017-10-15T01:26:56.901Z,15.00
2017-10-15T01:27:57.613Z,18.00
2017-10-15T01:28:58.326Z,18.00
2017-10-15T01:29:59.040Z,16.00
2017-10-15T01:30:59.753Z,22.00
2017-10-15T01:32:00.467Z,19.00
2017-10-15T01:33:01.195Z,23.00
2017-10-15T01:34:01.913Z,23.00
2017-10-15T01:35:02.624Z,21.00
2017-10-15T01:36:03.352Z,20.00
2017-10-15T01:37:04.081Z,18.00
2017-10-15T01:38:04.797Z,23.00
2017-10-15T01:39:05.513Z,23.00
2017-10-15T01:40:06.237Z,21.00
2017-10-15T01:41:06.951Z,19.00
2017-10-15T01:42:07.664Z,22.00
2017-10-15T01:43:08.378Z,21.00
2017-10-15T01:44:09.091Z,21.00
2017-10-15T01:45:09.818Z,22.00
2017-10-15T01:46:10.531Z,23.00
2017-10-15T01:47:11.243Z,22.00
2017-10-15T01:48:11.956Z,21.00
2017-10-15T01:49:12.668Z,22.00
2017-10-15T01:50:13.385Z,22.00
2017-10-15T01:51:14.109Z,23.00
2017-10-15T01:52:14.824Z,19.00
2017-10-15T01:53:15.550Z,20.00
2017-10-15T01:54:16.269Z,20.00
2017-10-15T01:55:16.990Z,20.00
2017-10-15T01:56:17.704Z,21.00
2017-10-15T01:57:18.431Z,20.00
2017-10-15T01:58:19.144Z,22.00
2017-10-15T01:59:19.868Z,22.00
2017-10-15T02:00:20.580Z,24.00
2017-10-15T02:01:21.309Z,19.00
2017-10-15T02:02:22.035Z,21.00
2017-10-15T02:03:22.749Z,24.00
2017-10-15T02:04:23.498Z,21.00
2017-10-15T02:05:24.190Z,22.00
2017-10-15T02:06:24.918Z,21.00
2017-10-15T02:07:25.632Z,23.00
2017-10-15T02:08:26.348Z,22.00
2017-10-15T02:09:27.059Z,20.00
2017-10-15T02:10:27.771Z,20.00
2017-10-15T02:11:28.484Z,22.00
2017-10-15T02:12:29.212Z,19.00
2017-10-15T02:13:29.926Z,20.00
2017-10-15T02:14:30.637Z,19.00
2017-10-15T02:15:31.351Z,20.00
2017-10-15T02:16:32.063Z,19.00
2017-10-15T02:17:32.775Z,20.00
2017-10-15T02:18:33.489Z,23.00
2017-10-15T02:19:34.202Z,19.00
2017-10-15T02:20:34.928Z,19.00
2017-10-15T02:21:35.640Z,22.00
2017-10-15T02:22:36.355Z,15.00
2017-10-15T02:23:37.070Z,17.00
2017-10-15T02:24:37.797Z,20.00
2017-10-15T02:25:38.511Z,20.00
2017-10-15T02:26:39.224Z,19.00
2017-10-15T02:27:39.952Z,20.00
2017-10-15T02:28:40.666Z,19.00
2017-10-15T02:29:41.379Z,21.00
2017-10-15T02:30:42.106Z,20.00
2017-10-15T02:31:42.827Z,20.00
2017-10-15T02:32:43.532Z,24.00
2017-10-15T02:33:44.244Z,18.00
2017-10-15T02:34:44.972Z,19.00
2017-10-15T02:35:45.685Z,19.00
2017-10-15T02:36:46.396Z,21.00
2017-10-15T02:37:47.108Z,22.00
2017-10-15T02:38:47.822Z,22.00
2017-10-15T02:39:48.535Z,20.00
2017-10-15T02:40:49.249Z,20.00
2017-10-15T02:41:49.963Z,21.00
2017-10-15T02:42:50.677Z,18.00
2017-10-15T02:43:51.389Z,18.00
2017-10-15T02:44:52.117Z,17.00
2017-10-15T02:45:52.844Z,18.00
2017-10-15T02:46:53.557Z,17.00
2017-10-15T02:47:54.271Z,16.00
2017-10-15T02:48:54.997Z,14.00
2017-10-15T02:49:55.712Z,20.00
2017-10-15T02:50:56.433Z,16.00
2017-10-15T02:51:57.139Z,18.00
2017-10-15T02:52:57.852Z,19.00
2017-10-15T02:53:58.563Z,19.00
2017-10-15T02:54:59.277Z,19.00
2017-10-15T02:55:59.988Z,19.00
2017-10-15T02:57:00.702Z,20.00
2017-10-15T02:58:01.428Z,17.00
2017-10-15T02:59:02.143Z,21.00
2017-10-15T03:00:02.858Z,21.00
2017-10-15T03:01:03.573Z,18.00
2017-10-15T03:02:04.291Z,18.00
2017-10-15T03:03:04.997Z,19.00
2017-10-15T03:04:05.708Z,16.00
2017-10-15T03:05:06.419Z,18.00
2017-10-15T03:06:07.133Z,19.00
2017-10-15T03:07:07.845Z,24.00
2017-10-15T03:08:08.559Z,26.00
2017-10-15T03:09:09.271Z,29.00
2017-10-15T03:10:09.985Z,30.00
2017-10-15T03:11:10.698Z,28.00
2017-10-15T03:12:11.412Z,31.00
2017-10-15T03:13:12.141Z,28.00
2017-10-15T03:14:12.853Z,31.00
2017-10-15T03:15:13.566Z,30.00
2017-10-15T03:16:14.278Z,29.00
2017-10-15T03:17:14.991Z,26.00
2017-10-15T03:18:15.706Z,27.00
2017-10-15T03:19:16.420Z,25.00
2017-10-15T03:20:17.147Z,26.00
2017-10-15T03:21:17.860Z,24.00
2017-10-15T03:22:18.573Z,25.00
2017-10-15T03:23:19.286Z,24.00
2017-10-15T03:24:19.997Z,23.00
2017-10-15T03:25:20.709Z,21.00
2017-10-15T03:26:21.421Z,21.00
2017-10-15T03:27:22.149Z,20.00
2017-10-15T03:28:22.856Z,17.00
2017-10-15T03:29:23.567Z,21.00
2017-10-15T03:30:24.284Z,18.00
2017-10-15T03:31:24.992Z,18.00
2017-10-15T03:32:25.707Z,18.00
2017-10-15T03:33:26.419Z,18.00
2017-10-15T03:34:27.127Z,19.00
2017-10-15T03:35:27.840Z,21.00
2017-10-15T03:36:28.552Z,20.00
2017-10-15T03:37:29.266Z,21.00
2017-10-15T03:38:29.979Z,17.00
2017-10-15T03:39:30.698Z,16.00
2017-10-15T03:40:31.407Z,18.00
2017-10-15T03:41:32.118Z,21.00
2017-10-15T03:42:32.830Z,17.00
2017-10-15T03:43:33.547Z,20.00
2017-10-15T03:44:34.263Z,22.00
2017-10-15T03:45:34.974Z,18.00
2017-10-15T03:46:35.700Z,18.00
2017-10-15T03:47:36.419Z,17.00
2017-10-15T03:48:37.124Z,18.00
2017-10-15T03:49:37.837Z,20.00
2017-10-15T03:50:38.548Z,17.00
2017-10-15T03:51:39.258Z,20.00
2017-10-15T03:52:39.970Z,19.00
2017-10-15T03:53:40.680Z,17.00
2017-10-15T03:54:41.389Z,18.00
2017-10-15T03:55:42.111Z,19.00
2017-10-15T03:56:42.824Z,21.00
2017-10-15T03:57:43.549Z,19.00
2017-10-15T03:58:44.262Z,21.00
2017-10-15T03:59:44.977Z,22.00
2017-10-15T04:00:45.690Z,20.00
2017-10-15T04:01:46.410Z,19.00
2017-10-15T04:02:47.122Z,22.00
2017-10-15T04:03:47.836Z,17.00
2017-10-15T04:04:48.547Z,18.00
2017-10-15T04:05:49.260Z,17.00
2017-10-15T04:06:49.971Z,20.00
2017-10-15T04:07:50.682Z,18.00
2017-10-15T04:08:51.394Z,19.00
2017-10-15T04:09:52.102Z,17.00
2017-10-15T04:10:52.812Z,21.00
2017-10-15T04:11:53.526Z,20.00
2017-10-15T04:12:54.237Z,19.00
2017-10-15T04:13:54.962Z,17.00
2017-10-15T04:14:55.674Z,20.00
2017-10-15T04:15:56.387Z,19.00
2017-10-15T04:16:57.098Z,16.00
2017-10-15T04:17:57.809Z,16.00
2017-10-15T04:18:58.533Z,15.00
2017-10-15T04:19:59.243Z,16.00
2017-10-15T04:20:59.954Z,18.00
2017-10-15T04:22:00.663Z,16.00
2017-10-15T04:23:01.388Z,14.00
2017-10-15T04:24:02.101Z,17.00
2017-10-15T04:25:02.825Z,17.00
2017-10-15T04:26:03.535Z,14.00
2017-10-15T04:27:04.247Z,15.00
2017-10-15T04:28:04.972Z,14.00
2017-10-15T04:29:05.698Z,13.00
2017-10-15T04:30:06.419Z,14.00
2017-10-15T04:31:07.120Z,15.00
2017-10-15T04:32:07.834Z,17.00
2017-10-15T04:33:08.543Z,17.00
2017-10-15T04:34:09.253Z,18.00
2017-10-15T04:35:09.964Z,16.00
2017-10-15T04:36:10.676Z,20.00
2017-10-15T04:37:11.387Z,15.00
2017-10-15T04:38:12.097Z,17.00
2017-10-15T04:39:12.813Z,19.00
2017-10-15T04:40:13.521Z,16.00
2017-10-15T04:41:14.245Z,17.00
2017-10-15T04:42:14.958Z,15.00
2017-10-15T04:43:15.666Z,15.00
2017-10-15T04:44:16.378Z,16.00
2017-10-15T04:45:17.089Z,17.00
2017-10-15T04:46:17.799Z,16.00
2017-10-15T04:47:18.511Z,16.00
2017-10-15T04:48:19.236Z,17.00
2017-10-15T04:49:19.947Z,16.00
2017-10-15T04:50:20.659Z,16.00
2017-10-15T04:51:21.369Z,16.00
2017-10-15T04:52:22.083Z,18.00
2017-10-15T04:53:22.792Z,15.00
2017-10-15T04:54:23.503Z,18.00
2017-10-15T04:55:24.214Z,18.00
2017-10-15T04:56:24.926Z,14.00
2017-10-15T04:57:25.639Z,17.00
2017-10-15T04:58:26.351Z,18.00
2017-10-15T04:59:27.077Z,15.00
2017-10-15T05:00:27.775Z,16.00
2017-10-15T05:01:28.485Z,17.00
2017-10-15T05:02:29.196Z,19.00
2017-10-15T05:03:29.907Z,15.00
2017-10-15T05:04:30.621Z,18.00
2017-10-15T05:05:31.331Z,17.00
2017-10-15T05:06:32.057Z,17.00
2017-10-15T05:07:32.767Z,16.00
2017-10-15T05:08:33.479Z,17.00
2017-10-15T05:09:34.189Z,20.00
2017-10-15T05:10:34.900Z,15.00
2017-10-15T05:11:35.611Z,17.00
2017-10-15T05:12:36.321Z,16.00
2017-10-15T05:13:37.045Z,17.00
2017-10-15T05:14:37.760Z,17.00
2017-10-15T05:15:38.467Z,17.00
2017-10-15T05:16:39.178Z,17.00
2017-10-15T05:17:39.889Z,18.00
2017-10-15T05:18:40.600Z,16.00
2017-10-15T05:19:41.310Z,19.00
2017-10-15T05:20:42.023Z,18.00
2017-10-15T05:21:42.732Z,15.00
2017-10-15T05:22:43.444Z,18.00
2017-10-15T05:23:44.160Z,17.00
2017-10-15T05:24:44.870Z,18.00
2017-10-15T05:25:45.582Z,15.00
2017-10-15T05:26:46.305Z,14.00
2017-10-15T05:27:47.017Z,15.00
2017-10-15T05:28:47.744Z,14.00
2017-10-15T05:29:48.452Z,17.00
2017-10-15T05:30:49.163Z,15.00
2017-10-15T05:31:49.873Z,17.00
2017-10-15T05:32:50.584Z,15.00
2017-10-15T05:33:51.296Z,16.00
2017-10-15T05:34:52.009Z,17.00
2017-10-15T05:35:52.734Z,15.00
2017-10-15T05:36:53.459Z,16.00
2017-10-15T05:37:54.172Z,14.00
2017-10-15T05:38:54.883Z,15.00
2017-10-15T05:39:55.598Z,16.00
2017-10-15T05:40:56.321Z,14.00
2017-10-15T05:41:57.032Z,15.00
2017-10-15T05:42:57.745Z,16.00
2017-10-15T05:43:58.457Z,15.00
2017-10-15T05:44:59.170Z,15.00
2017-10-15T05:45:59.883Z,14.00
2017-10-15T05:47:00.597Z,13.00
2017-10-15T05:48:01.310Z,12.00
2017-10-15T05:49:02.024Z,15.00
2017-10-15T05:50:02.743Z,13.00
2017-10-15T05:51:03.452Z,16.00
2017-10-15T05:52:04.168Z,12.00
2017-10-15T05:53:04.881Z,12.00
2017-10-15T05:54:05.595Z,14.00
2017-10-15T05:55:06.320Z,15.00
2017-10-15T05:56:07.033Z,13.00
2017-10-15T05:57:07.747Z,12.00
2017-10-15T05:58:08.461Z,14.00
2017-10-15T05:59:09.177Z,12.00
2017-10-15T06:00:09.894Z,12.00
2017-10-15T06:01:10.609Z,14.00
2017-10-15T06:02:11.323Z,13.00
2017-10-15T06:03:12.039Z,12.00
2017-10-15T06:04:12.767Z,16.00
2017-10-15T06:05:13.482Z,14.00
2017-10-15T06:06:14.195Z,13.00
2017-10-15T06:07:14.919Z,13.00
2017-10-15T06:08:15.636Z,12.00
2017-10-15T06:09:16.351Z,13.00
2017-10-15T06:10:17.066Z,12.00
2017-10-15T06:11:17.782Z,11.00
2017-10-15T06:12:18.495Z,11.00
2017-10-15T06:13:19.210Z,17.00
2017-10-15T06:14:19.925Z,11.00
2017-10-15T06:15:20.640Z,11.00
2017-10-15T06:16:21.357Z,15.00
2017-10-15T06:17:22.073Z,13.00
2017-10-15T06:18:22.790Z,12.00
2017-10-15T06:19:23.508Z,12.00
2017-10-15T06:20:24.224Z,12.00
2017-10-15T06:21:24.941Z,12.00
2017-10-15T06:22:25.658Z,11.00
2017-10-15T06:23:26.374Z,12.00
2017-10-15T06:24:27.090Z,10.00
2017-10-15T06:25:27.808Z,10.00
2017-10-15T06:26:28.537Z,11.00
2017-10-15T06:27:29.253Z,9.00
2017-10-15T06:28:29.969Z,11.00
2017-10-15T06:29:30.686Z,11.00
2017-10-15T06:30:31.406Z,11.00
2017-10-15T06:31:32.124Z,11.00
2017-10-15T06:32:32.839Z,9.00
2017-10-15T06:33:33.556Z,9.00
2017-10-15T06:34:34.276Z,12.00
2017-10-15T06:35:34.990Z,12.00
2017-10-15T06:36:35.707Z,10.00
2017-10-15T06:37:36.425Z,9.00
2017-10-15T06:38:37.147Z,10.00
2017-10-15T06:39:37.865Z,12.00
2017-10-15T06:40:38.586Z,10.00
2017-10-15T06:41:39.304Z,8.00
2017-10-15T06:42:40.037Z,10.00
2017-10-15T06:43:40.755Z,7.00
2017-10-15T06:44:41.475Z,10.00
2017-10-15T06:45:42.194Z,9.00
2017-10-15T06:46:42.917Z,9.00
2017-10-15T06:47:43.631Z,9.00
2017-10-15T06:48:44.352Z,9.00
2017-10-15T06:49:45.073Z,10.00
2017-10-15T06:50:45.796Z,10.00
2017-10-15T06:51:46.511Z,7.00
2017-10-15T06:52:47.230Z,9.00
2017-10-15T06:53:47.950Z,9.00
2017-10-15T06:54:48.681Z,8.00
2017-10-15T06:55:49.401Z,9.00
2017-10-15T06:56:50.126Z,10.00
2017-10-15T06:57:50.842Z,7.00
2017-10-15T06:58:51.570Z,10.00
2017-10-15T06:59:52.299Z,10.00
2017-10-15T07:00:53.017Z,7.00
2017-10-15T07:01:53.740Z,8.00
2017-10-15T07:02:54.474Z,8.00
2017-10-15T07:03:55.193Z,8.00
2017-10-15T07:04:55.915Z,8.00
2017-10-15T07:05:56.633Z,7.00
2017-10-15T07:06:57.353Z,9.00
2017-10-15T07:07:58.074Z,9.00
2017-10-15T07:08:58.794Z,8.00
2017-10-15T07:09:59.514Z,9.00
2017-10-15T07:11:00.236Z,9.00
2017-10-15T07:12:00.957Z,9.00
2017-10-15T07:13:01.677Z,9.00
2017-10-15T07:14:02.396Z,8.00
2017-10-15T07:15:03.133Z,9.00
2017-10-15T07:16:03.864Z,8.00
2017-10-15T07:17:04.605Z,9.00
2017-10-15T07:18:05.321Z,9.00
2017-10-15T07:19:06.056Z,9.00
2017-10-15T07:20:06.779Z,8.00
2017-10-15T07:21:07.503Z,10.00
2017-10-15T07:22:08.224Z,9.00
2017-10-15T07:23:08.961Z,8.00
2017-10-15T07:24:09.693Z,9.00
2017-10-15T07:25:10.418Z,8.00
2017-10-15T07:26:11.154Z,8.00
2017-10-15T07:27:11.878Z,8.00
2017-10-15T07:28:12.602Z,10.00
2017-10-15T07:29:13.327Z,9.00
2017-10-15T07:30:14.048Z,9.00
2017-10-15T07:31:14.771Z,9.00
2017-10-15T07:32:15.495Z,8.00
2017-10-15T07:33:16.221Z,9.00
2017-10-15T07:34:16.945Z,8.00
2017-10-15T07:35:17.670Z,10.00
2017-10-15T07:36:18.403Z,9.00
2017-10-15T07:37:19.140Z,8.00
2017-10-15T07:38:19.862Z,8.00
2017-10-15T07:39:20.596Z,9.00
2017-10-15T07:40:21.322Z,7.00
2017-10-15T07:41:22.049Z,9.00
2017-10-15T07:42:22.776Z,10.00
2017-10-15T07:43:23.499Z,9.00
2017-10-15T07:44:24.225Z,9.00
2017-10-15T07:45:24.950Z,9.00
2017-10-15T07:46:25.675Z,12.00
2017-10-15T07:47:26.404Z,11.00
2017-10-15T07:48:27.128Z,9.00
2017-10-15T07:49:27.854Z,9.00
2017-10-15T07:50:28.582Z,9.00
2017-10-15T07:51:29.308Z,9.00
2017-10-15T07:52:30.036Z,8.00
2017-10-15T07:53:30.763Z,9.00
2017-10-15T07:54:31.494Z,8.00
2017-10-15T07:55:32.236Z,11.00
2017-10-15T07:56:32.967Z,8.00
2017-10-15T07:57:33.692Z,9.00
2017-10-15T07:58:34.419Z,10.00
2017-10-15T07:59:35.151Z,10.00
2017-10-15T08:00:35.884Z,10.00
2017-10-15T08:01:36.616Z,10.00
2017-10-15T08:02:37.353Z,9.00
2017-10-15T08:03:38.113Z,9.00
2017-10-15T08:04:38.843Z,10.00
2017-10-15T08:05:39.575Z,8.00
2017-10-15T08:06:40.305Z,10.00
2017-10-15T08:07:41.037Z,10.00
2017-10-15T08:08:41.766Z,9.00
2017-10-15T08:09:42.510Z,8.00
2017-10-15T08:10:43.239Z,7.00
2017-10-15T08:11:43.976Z,7.00
2017-10-15T08:12:44.714Z,9.00
2017-10-15T08:13:45.445Z,8.00
2017-10-15T08:14:46.175Z,9.00
2017-10-15T08:15:46.912Z,8.00
2017-10-15T08:16:47.642Z,10.00
2017-10-15T08:17:48.371Z,10.00
2017-10-15T08:18:49.103Z,10.00
2017-10-15T08:19:49.850Z,9.00
2017-10-15T08:20:50.577Z,9.00
2017-10-15T08:21:51.309Z,7.00
2017-10-15T08:22:52.040Z,9.00
2017-10-15T08:23:52.769Z,7.00
2017-10-15T08:24:53.499Z,9.00
2017-10-15T08:25:54.229Z,9.00
2017-10-15T08:26:54.959Z,8.00
2017-10-15T08:27:55.693Z,8.00
2017-10-15T08:28:56.425Z,9.00
2017-10-15T08:29:57.151Z,8.00
2017-10-15T08:30:57.880Z,9.00
2017-10-15T08:31:58.607Z,8.00
2017-10-15T08:32:59.347Z,7.00
2017-10-15T08:34:00.074Z,9.00
2017-10-15T08:35:00.814Z,9.00
2017-10-15T08:36:01.558Z,9.00
2017-10-15T08:37:02.300Z,10.00
2017-10-15T08:38:03.026Z,9.00
2017-10-15T08:39:03.756Z,9.00
2017-10-15T08:40:04.485Z,8.00
2017-10-15T08:41:05.215Z,9.00
2017-10-15T08:42:05.943Z,7.00
2017-10-15T08:43:06.686Z,7.00
2017-10-15T08:44:07.429Z,9.00
2017-10-15T08:45:08.161Z,9.00
2017-10-15T08:46:08.894Z,7.00
2017-10-15T08:47:09.619Z,8.00
2017-10-15T08:48:10.348Z,7.00
2017-10-15T08:49:11.078Z,8.00
2017-10-15T08:50:11.807Z,8.00
2017-10-15T08:51:12.537Z,9.00
2017-10-15T08:52:13.267Z,9.00
2017-10-15T08:53:14.000Z,8.00
2017-10-15T08:54:14.732Z,9.00
2017-10-15T08:55:15.472Z,8.00
2017-10-15T08:56:16.202Z,9.00
2017-10-15T08:57:16.931Z,8.00
2017-10-15T08:58:17.660Z,8.00
2017-10-15T08:59:18.394Z,10.00
2017-10-15T09:00:19.125Z,8.00
2017-10-15T09:01:19.867Z,9.00
2017-10-15T09:02:20.598Z,8.00
2017-10-15T09:03:21.340Z,9.00
2017-10-15T09:04:22.070Z,9.00
2017-10-15T09:05:22.803Z,8.00
2017-10-15T09:06:23.532Z,7.00
2017-10-15T09:07:24.263Z,8.00
2017-10-15T09:08:25.007Z,8.00
2017-10-15T09:09:25.738Z,9.00
2017-10-15T09:10:26.470Z,12.00
2017-10-15T09:11:27.202Z,7.00
2017-10-15T09:12:27.934Z,9.00
2017-10-15T09:13:28.678Z,9.00
2017-10-15T09:14:29.409Z,7.00
2017-10-15T09:15:30.142Z,7.00
2017-10-15T09:16:30.874Z,10.00
2017-10-15T09:17:31.607Z,8.00
2017-10-15T09:18:32.351Z,9.00
2017-10-15T09:19:33.097Z,7.00
2017-10-15T09:20:33.829Z,8.00
2017-10-15T09:21:34.577Z,9.00
2017-10-15T09:22:35.305Z,8.00
2017-10-15T09:23:36.051Z,10.00
2017-10-15T09:24:36.788Z,7.00
2017-10-15T09:25:37.513Z,8.00
2017-10-15T09:26:38.247Z,8.00
2017-10-15T09:27:38.977Z,9.00
2017-10-15T09:28:39.710Z,7.00
2017-10-15T09:29:40.443Z,9.00
2017-10-15T09:30:41.175Z,7.00
2017-10-15T09:31:41.919Z,9.00
2017-10-15T09:32:42.663Z,8.00
2017-10-15T09:33:43.398Z,7.00
2017-10-15T09:34:44.131Z,8.00
2017-10-15T09:35:44.862Z,7.00
2017-10-15T09:36:45.597Z,9.00
2017-10-15T09:37:46.330Z,7.00
2017-10-15T09:38:47.062Z,7.00
2017-10-15T09:39:47.793Z,8.00
2017-10-15T09:40:48.527Z,7.00
2017-10-15T09:41:49.259Z,7.00
2017-10-15T09:42:49.991Z,8.00
2017-10-15T09:43:50.726Z,8.00
2017-10-15T09:44:51.461Z,7.00
2017-10-15T09:45:52.196Z,14.00
2017-10-15T09:46:52.930Z,10.00
2017-10-15T09:47:53.665Z,6.00
2017-10-15T09:48:54.398Z,7.00
2017-10-15T09:49:55.133Z,7.00
2017-10-15T09:50:55.867Z,8.00
2017-10-15T09:51:56.604Z,9.00
2017-10-15T09:52:57.338Z,8.00
2017-10-15T09:53:58.073Z,7.00
2017-10-15T09:54:58.809Z,8.00
2017-10-15T09:55:59.544Z,7.00
2017-10-15T09:57:00.278Z,8.00
2017-10-15T09:58:01.021Z,9.00
2017-10-15T09:59:01.748Z,9.00
2017-10-15T10:00:02.494Z,6.00
2017-10-15T10:01:03.227Z,7.00
2017-10-15T10:02:03.962Z,7.00
2017-10-15T10:03:04.702Z,7.00
2017-10-15T10:04:05.438Z,8.00
2017-10-15T10:05:06.173Z,9.00
2017-10-15T10:06:06.912Z,7.00
2017-10-15T10:07:07.658Z,8.00
2017-10-15T10:08:08.396Z,9.00
2017-10-15T10:09:09.136Z,8.00
2017-10-15T10:10:09.883Z,7.00
2017-10-15T10:11:10.618Z,9.00
2017-10-15T10:12:11.355Z,8.00
2017-10-15T10:13:12.106Z,7.00
2017-10-15T10:14:12.844Z,8.00
2017-10-15T10:15:13.576Z,7.00
2017-10-15T10:16:14.317Z,6.00
2017-10-15T10:17:15.050Z,9.00
2017-10-15T10:18:15.792Z,8.00
2017-10-15T10:19:16.532Z,9.00
2017-10-15T10:20:17.270Z,8.00
2017-10-15T10:21:18.011Z,9.00
2017-10-15T10:22:18.746Z,8.00
2017-10-15T10:23:19.483Z,7.00
2017-10-15T10:24:20.217Z,8.00
2017-10-15T10:25:20.967Z,7.00
2017-10-15T10:26:21.704Z,7.00
2017-10-15T10:27:22.445Z,7.00
2017-10-15T10:28:23.182Z,9.00
2017-10-15T10:29:23.920Z,9.00
2017-10-15T10:30:24.658Z,8.00
2017-10-15T10:31:25.396Z,7.00
2017-10-15T10:32:26.138Z,9.00
2017-10-15T10:33:26.884Z,9.00
2017-10-15T10:34:27.624Z,8.00
2017-10-15T10:35:28.364Z,7.00
2017-10-15T10:36:29.114Z,6.00
2017-10-15T10:37:29.872Z,7.00
2017-10-15T10:38:30.625Z,7.00
2017-10-15T10:39:31.381Z,7.00
2017-10-15T10:40:32.123Z,7.00
2017-10-15T10:41:32.868Z,7.00
2017-10-15T10:42:33.624Z,7.00
2017-10-15T10:43:34.368Z,6.00
2017-10-15T10:44:35.114Z,7.00
2017-10-15T10:45:35.859Z,6.00
2017-10-15T10:46:36.599Z,7.00
2017-10-15T10:47:37.341Z,7.00
2017-10-15T10:48:38.084Z,5.00
2017-10-15T10:49:38.826Z,8.00
2017-10-15T10:50:39.580Z,8.00
2017-10-15T10:51:40.317Z,5.00
2017-10-15T10:52:41.071Z,6.00
2017-10-15T10:53:41.826Z,6.00
2017-10-15T10:54:42.577Z,7.00
2017-10-15T10:55:43.323Z,7.00
2017-10-15T10:56:44.073Z,7.00
2017-10-15T10:57:44.820Z,8.00
2017-10-15T10:58:45.572Z,7.00
2017-10-15T10:59:46.311Z,6.00
2017-10-15T11:00:47.059Z,6.00
2017-10-15T11:01:47.800Z,7.00
2017-10-15T11:02:48.550Z,6.00
2017-10-15T11:03:49.291Z,9.00
2017-10-15T11:04:50.033Z,7.00
2017-10-15T11:05:50.774Z,7.00
2017-10-15T11:06:51.513Z,6.00
2017-10-15T11:07:52.264Z,6.00
2017-10-15T11:08:53.000Z,6.00
2017-10-15T11:09:53.754Z,7.00
2017-10-15T11:10:54.494Z,6.00
2017-10-15T11:11:55.239Z,6.00
2017-10-15T11:12:55.995Z,6.00
2017-10-15T11:13:56.737Z,8.00
2017-10-15T11:14:57.476Z,7.00
2017-10-15T11:15:58.215Z,5.00
2017-10-15T11:16:58.960Z,5.00
2017-10-15T11:17:59.713Z,5.00
2017-10-15T11:19:00.454Z,6.00
2017-10-15T11:20:01.191Z,5.00
2017-10-15T11:21:02.547Z,5.00
2017-10-15T11:22:03.290Z,5.00
2017-10-15T11:23:04.029Z,5.00
2017-10-15T11:24:04.771Z,7.00
2017-10-15T11:25:05.509Z,5.00
2017-10-15T11:26:06.252Z,6.00
2017-10-15T11:27:06.994Z,7.00
2017-10-15T11:28:07.732Z,5.00
2017-10-15T11:29:08.474Z,7.00
2017-10-15T11:30:09.241Z,6.00
2017-10-15T11:31:09.964Z,6.00
2017-10-15T11:32:10.718Z,7.00
2017-10-15T11:33:11.459Z,7.00
2017-10-15T11:34:12.197Z,7.00
2017-10-15T11:35:12.951Z,6.00
2017-10-15T11:36:13.694Z,7.00
2017-10-15T11:37:14.454Z,8.00
2017-10-15T11:38:15.207Z,6.00
2017-10-15T11:39:15.950Z,7.00
2017-10-15T11:40:16.708Z,7.00
2017-10-15T11:41:17.452Z,7.00
2017-10-15T11:42:18.195Z,5.00
2017-10-15T11:43:18.939Z,7.00
2017-10-15T11:44:19.683Z,7.00
2017-10-15T11:45:20.429Z,5.00
2017-10-15T11:46:21.172Z,7.00
2017-10-15T11:47:21.928Z,6.00
2017-10-15T11:48:22.671Z,7.00
2017-10-15T11:49:23.414Z,7.00
2017-10-15T11:50:24.156Z,7.00
2017-10-15T11:51:24.896Z,7.00
2017-10-15T11:52:25.649Z,8.00
2017-10-15T11:53:26.390Z,5.00
2017-10-15T11:54:27.135Z,7.00
2017-10-15T11:55:27.877Z,5.00
2017-10-15T11:56:28.617Z,7.00
2017-10-15T11:57:29.362Z,6.00
2017-10-15T11:58:30.112Z,5.00
2017-10-15T11:59:30.856Z,6.00
2017-10-15T12:00:31.594Z,6.00
2017-10-15T12:01:32.340Z,5.00
2017-10-15T12:02:33.083Z,6.00
2017-10-15T12:03:33.822Z,6.00
2017-10-15T12:04:34.564Z,6.00
2017-10-15T12:05:35.305Z,7.00
2017-10-15T12:06:36.048Z,8.00
2017-10-15T12:07:36.787Z,6.00
2017-10-15T12:08:37.540Z,7.00
2017-10-15T12:09:38.280Z,6.00
2017-10-15T12:10:39.021Z,7.00
2017-10-15T12:11:40.380Z,6.00
2017-10-15T12:12:41.123Z,7.00
2017-10-15T12:13:41.877Z,5.00
2017-10-15T12:14:42.620Z,7.00
2017-10-15T12:15:43.361Z,8.00
2017-10-15T12:16:44.107Z,7.00
2017-10-15T12:17:44.847Z,7.00
2017-10-15T12:18:45.588Z,8.00
2017-10-15T12:19:46.327Z,8.00
2017-10-15T12:20:47.068Z,7.00
2017-10-15T12:21:47.821Z,7.00
2017-10-15T12:22:48.562Z,8.00
2017-10-15T12:23:49.302Z,7.00
2017-10-15T12:24:50.043Z,6.00
2017-10-15T12:25:50.785Z,7.00
2017-10-15T12:26:51.524Z,7.00
2017-10-15T12:27:52.261Z,7.00
2017-10-15T12:28:52.998Z,6.00
2017-10-15T12:29:53.733Z,7.00
2017-10-15T12:30:54.477Z,6.00
2017-10-15T12:31:55.213Z,7.00
2017-10-15T12:32:55.957Z,7.00
2017-10-15T12:33:56.696Z,7.00
2017-10-15T12:34:57.430Z,7.00
2017-10-15T12:35:58.166Z,7.00
2017-10-15T12:36:58.901Z,6.00
2017-10-15T12:37:59.633Z,7.00
2017-10-15T12:39:00.367Z,7.00
2017-10-15T12:40:01.101Z,6.00
2017-10-15T12:41:01.832Z,6.00
2017-10-15T12:42:02.567Z,6.00
2017-10-15T12:43:03.298Z,6.00
2017-10-15T12:44:04.032Z,6.00
2017-10-15T12:45:04.765Z,6.00
2017-10-15T12:46:05.500Z,6.00
2017-10-15T12:47:06.243Z,6.00
2017-10-15T12:48:06.977Z,7.00
2017-10-15T12:49:07.724Z,7.00
2017-10-15T12:50:08.468Z,7.00
2017-10-15T12:51:09.205Z,5.00
2017-10-15T12:52:09.951Z,7.00
2017-10-15T12:53:10.686Z,6.00
2017-10-15T12:54:11.431Z,6.00
2017-10-15T12:55:12.187Z,7.00
2017-10-15T12:56:12.916Z,6.00
2017-10-15T12:57:13.655Z,7.00
2017-10-15T12:58:14.398Z,6.00
2017-10-15T12:59:15.137Z,5.00
2017-10-15T13:00:15.871Z,6.00
2017-10-15T13:01:16.606Z,6.00
2017-10-15T13:02:17.344Z,7.00
2017-10-15T13:03:18.079Z,5.00
2017-10-15T13:04:18.815Z,4.00
2017-10-15T13:05:19.556Z,10.00
2017-10-15T13:06:20.290Z,30.00
2017-10-15T13:07:21.023Z,5.00
2017-10-15T13:08:21.761Z,7.00
2017-10-15T13:09:22.496Z,5.00
2017-10-15T13:10:23.232Z,5.00
2017-10-15T13:11:23.963Z,6.00
2017-10-15T13:12:24.700Z,8.00
2017-10-15T13:13:25.434Z,5.00
2017-10-15T13:14:26.169Z,5.00